sensor_id;sensor_type;location;lat;lon;timestamp;pressure;altitude;pressure_sealevel;temperature;humidity
45369;BME280;51342;55.250;37.668;2023-06-22T18:55:05;99279.22;;;19.42;47.50
45369;BME280;51342;55.250;37.668;2023-06-22T18:57:43;99283.44;;;19.32;47.58
45369;BME280;51342;55.250;37.668;2023-06-22T19:00:15;99274.53;;;19.21;47.78
45369;BME280;51342;55.250;37.668;2023-06-22T19:03:06;99273.34;;;19.02;48.18
45369;BME280;51342;55.250;37.668;2023-06-22T19:05:38;99278.53;;;18.99;48.33
45369;BME280;51342;55.250;37.668;2023-06-22T19:08:10;99274.06;;;18.93;48.38
45369;BME280;51342;55.250;37.668;2023-06-22T19:10:44;99271.31;;;18.84;48.38
45369;BME280;51342;55.250;37.668;2023-06-22T19:13:29;99274.63;;;18.75;48.85
45369;BME280;51342;55.250;37.668;2023-06-22T19:16:13;99269.91;;;18.58;48.48
45369;BME280;51342;55.250;37.668;2023-06-22T19:18:48;99275.16;;;18.58;48.85
45369;BME280;51342;55.250;37.668;2023-06-22T19:21:22;99281.50;;;18.25;49.29
45369;BME280;51342;55.250;37.668;2023-06-22T19:23:55;99284.34;;;18.36;49.24
45369;BME280;51342;55.250;37.668;2023-06-22T19:26:27;99279.13;;;18.37;49.29
45369;BME280;51342;55.250;37.668;2023-06-22T19:28:58;99275.53;;;18.32;49.52
45369;BME280;51342;55.250;37.668;2023-06-22T19:31:31;99276.31;;;18.26;49.70
45369;BME280;51342;55.250;37.668;2023-06-22T19:34:03;99274.31;;;18.15;49.78
45369;BME280;51342;55.250;37.668;2023-06-22T19:36:35;99282.16;;;18.13;49.95
45369;BME280;51342;55.250;37.668;2023-06-22T19:39:19;99286.31;;;18.04;50.08
45369;BME280;51342;55.250;37.668;2023-06-22T19:42:03;99278.19;;;17.90;50.02
45369;BME280;51342;55.250;37.668;2023-06-22T19:44:34;99276.28;;;17.83;50.50
45369;BME280;51342;55.250;37.668;2023-06-22T19:47:06;99280.59;;;17.81;50.35
45369;BME280;51342;55.250;37.668;2023-06-22T19:49:38;99278.72;;;17.75;50.63
45369;BME280;51342;55.250;37.668;2023-06-22T19:52:09;99284.78;;;17.72;50.90
45369;BME280;51342;55.250;37.668;2023-06-22T19:54:53;99281.13;;;17.67;50.72
45369;BME280;51342;55.250;37.668;2023-06-22T19:57:24;99282.75;;;17.61;50.74
45369;BME280;51342;55.250;37.668;2023-06-22T19:59:55;99279.16;;;17.57;50.87
45369;BME280;51342;55.250;37.668;2023-06-22T20:02:28;99277.34;;;17.53;50.74
45369;BME280;51342;55.250;37.668;2023-06-22T20:05:07;99274.63;;;17.48;50.55
45369;BME280;51342;55.250;37.668;2023-06-22T20:07:41;99271.03;;;17.45;50.46
45369;BME280;51342;55.250;37.668;2023-06-22T20:10:15;99271.75;;;17.38;50.73
45369;BME280;51342;55.250;37.668;2023-06-22T20:12:51;99262.88;;;17.31;50.87
45369;BME280;51342;55.250;37.668;2023-06-22T20:15:26;99273.25;;;17.27;50.98
45369;BME280;51342;55.250;37.668;2023-06-22T20:18:11;99264.22;;;17.14;51.37
45369;BME280;51342;55.250;37.668;2023-06-22T20:20:46;99271.13;;;17.12;50.83
45369;BME280;51342;55.250;37.668;2023-06-22T20:23:20;99264.09;;;17.09;51.23
45369;BME280;51342;55.250;37.668;2023-06-22T20:25:53;99263.09;;;17.03;51.15
45369;BME280;51342;55.250;37.668;2023-06-22T20:28:25;99261.22;;;16.99;50.84
45369;BME280;51342;55.250;37.668;2023-06-22T20:31:05;99258.31;;;16.86;51.00
45369;BME280;51342;55.250;37.668;2023-06-22T20:33:37;99248.66;;;16.84;51.18
45369;BME280;51342;55.250;37.668;2023-06-22T20:36:08;99246.72;;;16.75;51.32
45369;BME280;51342;55.250;37.668;2023-06-22T20:38:41;99244.84;;;16.71;51.18
45369;BME280;51342;55.250;37.668;2023-06-22T20:41:16;99237.72;;;16.65;51.01
45369;BME280;51342;55.250;37.668;2023-06-22T20:43:52;99239.34;;;16.62;51.44
45369;BME280;51342;55.250;37.668;2023-06-22T20:46:24;99232.31;;;16.58;51.43
45369;BME280;51342;55.250;37.668;2023-06-22T20:48:55;99234.75;;;16.52;51.59
45369;BME280;51342;55.250;37.668;2023-06-22T20:51:29;99239.75;;;16.44;51.46
45369;BME280;51342;55.250;37.668;2023-06-22T20:54:03;99233.50;;;16.37;52.01
45369;BME280;51342;55.250;37.668;2023-06-22T20:56:35;99228.13;;;16.31;51.71
45369;BME280;51342;55.250;37.668;2023-06-22T20:59:06;99238.56;;;16.31;51.77
45369;BME280;51342;55.250;37.668;2023-06-22T21:01:38;99239.38;;;16.29;51.52
45369;BME280;51342;55.250;37.668;2023-06-22T21:04:09;99238.44;;;16.27;51.80
45369;BME280;51342;55.250;37.668;2023-06-22T21:06:53;99244.44;;;16.23;51.62
45369;BME280;51342;55.250;37.668;2023-06-22T21:09:24;99236.59;;;16.23;52.00
45369;BME280;51342;55.250;37.668;2023-06-22T21:11:55;99237.41;;;16.22;51.78
45369;BME280;51342;55.250;37.668;2023-06-22T21:14:27;99238.22;;;16.19;52.12
45369;BME280;51342;55.250;37.668;2023-06-22T21:16:58;99233.00;;;16.19;51.83
45369;BME280;51342;55.250;37.668;2023-06-22T21:19:42;99237.22;;;16.14;51.99
45369;BME280;51342;55.250;37.668;2023-06-22T21:22:13;99232.00;;;16.14;51.87
45369;BME280;51342;55.250;37.668;2023-06-22T21:24:49;99229.38;;;16.14;51.97
45369;BME280;51342;55.250;37.668;2023-06-22T21:27:34;99218.84;;;16.11;51.85
45369;BME280;51342;55.250;37.668;2023-06-22T21:30:10;99217.03;;;16.07;52.12
45369;BME280;51342;55.250;37.668;2023-06-22T21:32:42;99212.59;;;16.04;51.92
45369;BME280;51342;55.250;37.668;2023-06-22T21:35:13;99208.16;;;16.00;52.07
45369;BME280;51342;55.250;37.668;2023-06-22T21:38:03;99196.53;;;15.89;52.06
45369;BME280;51342;55.250;37.668;2023-06-22T21:40:47;99187.72;;;15.85;51.91
45369;BME280;51342;55.250;37.668;2023-06-22T21:43:18;99198.13;;;15.84;52.18
45369;BME280;51342;55.250;37.668;2023-06-22T21:45:50;99196.28;;;15.81;52.23
45369;BME280;51342;55.250;37.668;2023-06-22T21:48:21;99192.72;;;15.78;52.33
45369;BME280;51342;55.250;37.668;2023-06-22T21:50:53;99178.66;;;15.73;52.37
45369;BME280;51342;55.250;37.668;2023-06-22T21:53:24;99181.22;;;15.71;52.33
45369;BME280;51342;55.250;37.668;2023-06-22T21:55:57;99175.91;;;15.67;52.54
45369;BME280;51342;55.250;37.668;2023-06-22T21:58:29;99170.34;;;15.56;52.55
45369;BME280;51342;55.250;37.668;2023-06-22T22:01:00;99173.59;;;15.49;52.93
45369;BME280;51342;55.250;37.668;2023-06-22T22:03:32;99183.91;;;15.44;53.11
45369;BME280;51342;55.250;37.668;2023-06-22T22:06:03;99184.66;;;15.42;53.34
45369;BME280;51342;55.250;37.668;2023-06-22T22:08:35;99201.25;;;15.44;53.46
45369;BME280;51342;55.250;37.668;2023-06-22T22:11:07;99222.88;;;15.41;53.39
45369;BME280;51342;55.250;37.668;2023-06-22T22:13:38;99191.56;;;15.40;53.43
45369;BME280;51342;55.250;37.668;2023-06-22T22:16:11;99173.16;;;15.33;53.39
45369;BME280;51342;55.250;37.668;2023-06-22T22:18:43;99181.66;;;15.28;53.33
45369;BME280;51342;55.250;37.668;2023-06-22T22:21:14;99172.91;;;15.26;53.55
45369;BME280;51342;55.250;37.668;2023-06-22T22:23:45;99170.25;;;15.24;53.55
45369;BME280;51342;55.250;37.668;2023-06-22T22:26:18;99180.50;;;15.18;53.63
45369;BME280;51342;55.250;37.668;2023-06-22T22:28:49;99174.38;;;15.16;54.03
45369;BME280;51342;55.250;37.668;2023-06-22T22:31:21;99184.75;;;15.15;54.46
45369;BME280;51342;55.250;37.668;2023-06-22T22:33:52;99183.03;;;15.15;53.92
45369;BME280;51342;55.250;37.668;2023-06-22T22:36:23;99183.91;;;15.16;53.91
45369;BME280;51342;55.250;37.668;2023-06-22T22:38:55;99177.84;;;15.17;54.29
45369;BME280;51342;55.250;37.668;2023-06-22T22:41:27;99173.47;;;15.16;54.25
45369;BME280;51342;55.250;37.668;2023-06-22T22:43:58;99162.06;;;15.12;54.04
45369;BME280;51342;55.250;37.668;2023-06-22T22:46:30;99164.44;;;15.04;54.10
45369;BME280;51342;55.250;37.668;2023-06-22T22:49:02;99168.78;;;15.04;54.21
45369;BME280;51342;55.250;37.668;2023-06-22T22:51:33;99167.13;;;15.07;53.95
45369;BME280;51342;55.250;37.668;2023-06-22T22:54:05;99171.47;;;15.07;54.61
45369;BME280;51342;55.250;37.668;2023-06-22T22:56:38;99168.84;;;15.07;54.58
45369;BME280;51342;55.250;37.668;2023-06-22T22:59:09;99171.50;;;15.08;55.02
45369;BME280;51342;55.250;37.668;2023-06-22T23:01:40;99167.94;;;15.05;54.96
45369;BME280;51342;55.250;37.668;2023-06-22T23:04:12;99156.50;;;15.00;55.28
45369;BME280;51342;55.250;37.668;2023-06-22T23:06:48;99157.25;;;14.97;55.25
45369;BME280;51342;55.250;37.668;2023-06-22T23:09:20;99153.88;;;15.00;55.42
45369;BME280;51342;55.250;37.668;2023-06-22T23:11:51;99156.44;;;14.98;55.21
45369;BME280;51342;55.250;37.668;2023-06-22T23:14:24;99150.28;;;14.96;55.31
45369;BME280;51342;55.250;37.668;2023-06-22T23:16:55;99153.84;;;14.98;55.06
45369;BME280;51342;55.250;37.668;2023-06-22T23:19:27;99152.97;;;14.98;55.79
45369;BME280;51342;55.250;37.668;2023-06-22T23:21:59;99147.75;;;14.98;55.56
45369;BME280;51342;55.250;37.668;2023-06-22T23:24:31;99144.19;;;14.96;55.84
45369;BME280;51342;55.250;37.668;2023-06-22T23:27:02;99152.97;;;14.98;56.04
45369;BME280;51342;55.250;37.668;2023-06-22T23:29:35;99135.50;;;14.95;55.49
45369;BME280;51342;55.250;37.668;2023-06-22T23:32:07;99136.38;;;14.96;55.45
45369;BME280;51342;55.250;37.668;2023-06-22T23:34:38;99134.66;;;14.96;55.66
45369;BME280;51342;55.250;37.668;2023-06-22T23:37:10;99133.78;;;14.96;55.37
45369;BME280;51342;55.250;37.668;2023-06-22T23:39:41;99119.88;;;14.95;55.75
45369;BME280;51342;55.250;37.668;2023-06-22T23:42:14;99118.97;;;14.93;56.09
45369;BME280;51342;55.250;37.668;2023-06-22T23:44:46;99116.28;;;14.92;55.88
45369;BME280;51342;55.250;37.668;2023-06-22T23:47:17;99108.47;;;14.92;55.86
45369;BME280;51342;55.250;37.668;2023-06-22T23:49:48;99118.97;;;14.93;55.92
45369;BME280;51342;55.250;37.668;2023-06-22T23:52:19;99115.53;;;14.96;56.05
45369;BME280;51342;55.250;37.668;2023-06-22T23:54:51;99105.84;;;14.92;56.31
45369;BME280;51342;55.250;37.668;2023-06-22T23:57:22;99116.38;;;14.95;57.24
45369;BME280;51342;55.250;37.668;2023-06-22T23:59:54;99099.00;;;14.94;56.85
